Wetterdaten: aktuell Mittwoch, 25.11.2020 18:20
Datum Zeit Temp. A. Feuchte A. Luftdruck Regen Wind Taupunkt Windchill Windben
25.11.2020 18:20 2,3 C 82 % 1024,8 hPa 0,0 l/m 6,8 km/h (2 Bft) -0,4 C 1,9 C 14,5 km/h (3 Bft)
25.11.2020 18:15 2,3 C 82 % 1024,7 hPa 0,0 l/m 4,8 km/h (1 Bft) -0,4 C 2,3 C 11,3 km/h (2 Bft)
25.11.2020 18:10 2,4 C 82 % 1024,6 hPa 0,0 l/m 4,7 km/h (1 Bft) -0,4 C 2,4 C 11,3 km/h (2 Bft)
25.11.2020 18:05 2,4 C 82 % 1024,5 hPa 0,0 l/m 6,8 km/h (2 Bft) -0,4 C 2,0 C 14,5 km/h (3 Bft)
25.11.2020 18:00 2,4 C 82 % 1024,6 hPa 0,0 l/m 5,7 km/h (1 Bft) -0,4 C 2,4 C 14,5 km/h (3 Bft)
25.11.2020 17:55 2,5 C 82 % 1024,4 hPa 0,0 l/m 4,6 km/h (1 Bft) -0,3 C 2,5 C 11,3 km/h (2 Bft)
25.11.2020 17:50 2,5 C 82 % 1024,4 hPa 0,0 l/m 5,1 km/h (1 Bft) -0,3 C 2,5 C 14,5 km/h (3 Bft)
25.11.2020 17:45 2,6 C 82 % 1024,4 hPa 0,0 l/m 8,0 km/h (2 Bft) -0,2 C 1,1 C 16,1 km/h (3 Bft)
25.11.2020 17:40 2,6 C 82 % 1024,3 hPa 0,0 l/m 8,0 km/h (2 Bft) -0,2 C 1,1 C 16,1 km/h (3 Bft)
25.11.2020 17:35 2,6 C 82 % 1024,3 hPa 0,0 l/m 6,8 km/h (2 Bft) -0,2 C 2,2 C 12,9 km/h (3 Bft)
25.11.2020 17:30 2,6 C 82 % 1024,2 hPa 0,0 l/m 9,5 km/h (2 Bft) -0,2 C -0,2 C 14,5 km/h (3 Bft)
25.11.2020 17:25 2,6 C 82 % 1024,2 hPa 0,0 l/m 5,0 km/h (1 Bft) -0,2 C 2,6 C 12,9 km/h (3 Bft)
25.11.2020 17:20 2,6 C 82 % 1024,1 hPa 0,0 l/m 3,1 km/h (1 Bft) -0,2 C 2,6 C 6,4 km/h (2 Bft)
25.11.2020 17:15 2,6 C 82 % 1024,2 hPa 0,0 l/m 4,6 km/h (1 Bft) -0,2 C 2,6 C 9,7 km/h (2 Bft)
25.11.2020 17:10 2,6 C 82 % 1024,2 hPa 0,0 l/m 5,1 km/h (1 Bft) -0,2 C 2,6 C 11,3 km/h (2 Bft)
25.11.2020 17:05 2,6 C 82 % 1024,3 hPa 0,0 l/m 4,7 km/h (1 Bft) -0,2 C 2,6 C 11,3 km/h (2 Bft)
25.11.2020 17:00 2,6 C 81 % 1024,3 hPa 0,0 l/m 6,7 km/h (2 Bft) -0,3 C 2,3 C 14,5 km/h (3 Bft)
25.11.2020 16:55 2,7 C 81 % 1024,2 hPa 0,0 l/m 6,8 km/h (2 Bft) -0,2 C 2,3 C 12,9 km/h (3 Bft)
25.11.2020 16:50 2,7 C 81 % 1024,2 hPa 0,0 l/m 5,5 km/h (1 Bft) -0,2 C 2,7 C 14,5 km/h (3 Bft)
25.11.2020 16:45 2,7 C 81 % 1024,3 hPa 0,0 l/m 8,5 km/h (2 Bft) -0,2 C 0,7 C 16,1 km/h (3 Bft)
25.11.2020 16:40 2,7 C 81 % 1024,2 hPa 0,0 l/m 6,0 km/h (2 Bft) -0,2 C 2,7 C 12,9 km/h (3 Bft)
_ Min-Zeit 07:30 13:10 04:40 - 10:25 07:35 12:05 10:20
Minimum _ 1,8 C 81 % 1023,6 hPa - 1,6 km/h (1 Bft) -0,8 C -2,5 C 4,8 km/h (1 Bft)
_ Max-Zeit 14:30 04:10 00:00 00:00 12:05 00:25 14:15 12:05
Maximum _ 3,2 C 84 % 1025,2 hPa 0,0 l/m 12,4 km/h
SO (3 Bft)
0,2 C 3,1 C 24,1 km/h
S-SO (4 Bft)
Durchschnitt _ 2,4 C 83 % 1024,3 hPa #0,0 l/m 6,0 km/h (2 Bft) -0,2 C 1,9 C 13,0 km/h (3 Bft)